sensor_id;sensor_type;location;lat;lon;timestamp;pressure;altitude;pressure_sealevel;temperature;humidity
41467;BME280;27205;53.690;19.948;2022-10-17T00:00:38;100731.73;;;12.67;94.77
41467;BME280;27205;53.690;19.948;2022-10-17T00:06:05;100738.97;;;12.61;94.98
41467;BME280;27205;53.690;19.948;2022-10-17T00:11:16;100736.30;;;12.57;94.96
41467;BME280;27205;53.690;19.948;2022-10-17T00:16:30;100741.63;;;12.55;94.82
41467;BME280;27205;53.690;19.948;2022-10-17T00:21:33;100746.27;;;12.50;94.84
41467;BME280;27205;53.690;19.948;2022-10-17T00:26:35;100748.70;;;12.43;94.76
41467;BME280;27205;53.690;19.948;2022-10-17T00:31:37;100744.85;;;12.39;94.53
41467;BME280;27205;53.690;19.948;2022-10-17T00:36:39;100743.92;;;12.35;94.75
41467;BME280;27205;53.690;19.948;2022-10-17T00:41:40;100743.77;;;12.31;94.71
41467;BME280;27205;53.690;19.948;2022-10-17T00:46:42;100743.66;;;12.27;94.46
41467;BME280;27205;53.690;19.948;2022-10-17T00:51:56;100741.27;;;12.26;94.84
41467;BME280;27205;53.690;19.948;2022-10-17T00:57:00;100759.19;;;12.24;94.75
41467;BME280;27205;53.690;19.948;2022-10-17T01:02:05;100753.45;;;12.20;94.86
41467;BME280;27205;53.690;19.948;2022-10-17T01:07:08;100743.64;;;12.19;94.63
41467;BME280;27205;53.690;19.948;2022-10-17T01:22:31;100739.06;;;12.13;94.91
41467;BME280;27205;53.690;19.948;2022-10-17T01:27:48;100743.02;;;12.11;94.89
41467;BME280;27205;53.690;19.948;2022-10-17T01:33:16;100752.14;;;12.05;95.12
41467;BME280;27205;53.690;19.948;2022-10-17T01:38:29;100762.16;;;12.01;95.18
41467;BME280;27205;53.690;19.948;2022-10-17T01:43:57;100758.89;;;12.00;95.63
41467;BME280;27205;53.690;19.948;2022-10-17T01:49:01;100772.25;;;11.99;95.19
41467;BME280;27205;53.690;19.948;2022-10-17T01:54:10;100786.86;;;11.96;95.49
41467;BME280;27205;53.690;19.948;2022-10-17T01:59:17;100791.84;;;11.90;95.57
41467;BME280;27205;53.690;19.948;2022-10-17T02:04:20;100806.41;;;11.83;95.27
41467;BME280;27205;53.690;19.948;2022-10-17T02:09:24;100818.27;;;11.75;95.08
41467;BME280;27205;53.690;19.948;2022-10-17T02:14:40;100817.37;;;11.62;95.29
41467;BME280;27205;53.690;19.948;2022-10-17T02:25:40;100821.23;;;11.44;94.98
41467;BME280;27205;53.690;19.948;2022-10-17T02:30:54;100825.39;;;11.43;95.14
41467;BME280;27205;53.690;19.948;2022-10-17T02:36:04;100833.08;;;11.48;94.92
41467;BME280;27205;53.690;19.948;2022-10-17T02:41:10;100828.94;;;11.48;95.40
41467;BME280;27205;53.690;19.948;2022-10-17T02:46:15;100826.01;;;11.51;95.10
41467;BME280;27205;53.690;19.948;2022-10-17T02:57:07;100837.21;;;11.48;95.52
41467;BME280;27205;53.690;19.948;2022-10-17T03:02:11;100847.28;;;11.49;95.52
41467;BME280;27205;53.690;19.948;2022-10-17T03:07:13;100861.34;;;11.50;95.80
41467;BME280;27205;53.690;19.948;2022-10-17T03:12:15;100857.21;;;11.51;95.70
41467;BME280;27205;53.690;19.948;2022-10-17T03:17:16;100865.37;;;11.46;95.47
41467;BME280;27205;53.690;19.948;2022-10-17T03:22:18;100870.61;;;11.41;95.35
41467;BME280;27205;53.690;19.948;2022-10-17T03:27:20;100866.19;;;11.37;95.05
41467;BME280;27205;53.690;19.948;2022-10-17T03:32:22;100870.56;;;11.34;95.26
41467;BME280;27205;53.690;19.948;2022-10-17T03:37:24;100869.02;;;11.31;95.61
41467;BME280;27205;53.690;19.948;2022-10-17T03:42:26;100862.18;;;11.31;96.08
41467;BME280;27205;53.690;19.948;2022-10-17T03:47:28;100874.14;;;11.29;95.80
41467;BME280;27205;53.690;19.948;2022-10-17T03:52:30;100883.65;;;11.24;95.98
41467;BME280;27205;53.690;19.948;2022-10-17T03:57:34;100888.09;;;11.19;96.07
41467;BME280;27205;53.690;19.948;2022-10-17T04:02:36;100890.16;;;11.16;95.86
41467;BME280;27205;53.690;19.948;2022-10-17T04:07:38;100885.15;;;11.13;95.83
41467;BME280;27205;53.690;19.948;2022-10-17T04:12:40;100886.76;;;11.10;95.64
41467;BME280;27205;53.690;19.948;2022-10-17T04:17:42;100891.14;;;10.88;94.98
41467;BME280;27205;53.690;19.948;2022-10-17T04:22:44;100900.42;;;10.60;94.52
41467;BME280;27205;53.690;19.948;2022-10-17T04:27:45;100910.86;;;10.31;94.11
41467;BME280;27205;53.690;19.948;2022-10-17T04:32:49;100909.67;;;10.18;94.73
41467;BME280;27205;53.690;19.948;2022-10-17T04:37:51;100901.73;;;10.20;95.02
41467;BME280;27205;53.690;19.948;2022-10-17T04:42:53;100903.92;;;10.20;94.96
41467;BME280;27205;53.690;19.948;2022-10-17T04:47:55;100909.61;;;10.24;94.77
41467;BME280;27205;53.690;19.948;2022-10-17T04:52:58;100920.23;;;10.29;94.92
41467;BME280;27205;53.690;19.948;2022-10-17T04:58:00;100933.14;;;10.27;95.11
41467;BME280;27205;53.690;19.948;2022-10-17T05:03:02;100929.08;;;10.32;95.09
41467;BME280;27205;53.690;19.948;2022-10-17T05:08:05;100931.95;;;10.36;94.95
41467;BME280;27205;53.690;19.948;2022-10-17T05:13:08;100928.88;;;10.31;94.72
41467;BME280;27205;53.690;19.948;2022-10-17T05:18:10;100926.27;;;10.27;95.05
41467;BME280;27205;53.690;19.948;2022-10-17T05:23:12;100935.48;;;10.27;95.08
41467;BME280;27205;53.690;19.948;2022-10-17T05:28:14;100936.03;;;10.32;95.00
41467;BME280;27205;53.690;19.948;2022-10-17T05:33:16;100936.27;;;10.38;95.03
41467;BME280;27205;53.690;19.948;2022-10-17T05:38:18;100935.92;;;10.46;95.37
41467;BME280;27205;53.690;19.948;2022-10-17T05:43:20;100944.08;;;10.58;95.64
41467;BME280;27205;53.690;19.948;2022-10-17T05:48:22;100939.52;;;10.74;95.74
41467;BME280;27205;53.690;19.948;2022-10-17T05:53:24;100946.74;;;10.90;95.48
41467;BME280;27205;53.690;19.948;2022-10-17T05:58:27;100949.00;;;10.97;95.48
41467;BME280;27205;53.690;19.948;2022-10-17T06:03:49;100953.89;;;10.99;94.65
41467;BME280;27205;53.690;19.948;2022-10-17T06:08:51;100974.34;;;10.82;94.24
41467;BME280;27205;53.690;19.948;2022-10-17T06:13:53;100976.49;;;10.77;94.64
41467;BME280;27205;53.690;19.948;2022-10-17T06:18:55;100975.63;;;10.90;95.00
41467;BME280;27205;53.690;19.948;2022-10-17T06:23:57;100988.17;;;11.01;94.93
41467;BME280;27205;53.690;19.948;2022-10-17T06:28:59;100989.00;;;11.14;94.82
41467;BME280;27205;53.690;19.948;2022-10-17T06:34:01;100983.67;;;11.27;94.95
41467;BME280;27205;53.690;19.948;2022-10-17T06:39:03;100985.66;;;11.52;95.59
41467;BME280;27205;53.690;19.948;2022-10-17T06:44:05;100984.23;;;11.87;95.81
41467;BME280;27205;53.690;19.948;2022-10-17T06:49:11;100992.94;;;12.16;95.92
41467;BME280;27205;53.690;19.948;2022-10-17T06:54:13;101004.73;;;12.44;96.05
41467;BME280;27205;53.690;19.948;2022-10-17T06:59:15;101016.27;;;12.57;95.86
41467;BME280;27205;53.690;19.948;2022-10-17T07:04:17;101020.86;;;12.81;96.11
41467;BME280;27205;53.690;19.948;2022-10-17T07:09:20;101029.33;;;13.16;96.80
41467;BME280;27205;53.690;19.948;2022-10-17T07:14:23;101037.86;;;13.48;96.78
41467;BME280;27205;53.690;19.948;2022-10-17T07:19:32;101035.44;;;13.63;96.27
41467;BME280;27205;53.690;19.948;2022-10-17T07:24:34;101039.79;;;13.73;96.31
41467;BME280;27205;53.690;19.948;2022-10-17T07:29:36;101039.77;;;13.95;96.60
41467;BME280;27205;53.690;19.948;2022-10-17T07:34:38;101042.02;;;14.28;96.75
41467;BME280;27205;53.690;19.948;2022-10-17T07:39:40;101046.17;;;14.49;96.70
41467;BME280;27205;53.690;19.948;2022-10-17T07:44:42;101043.35;;;14.66;96.53
41467;BME280;27205;53.690;19.948;2022-10-17T07:49:46;101046.17;;;14.89;96.63
41467;BME280;27205;53.690;19.948;2022-10-17T07:54:48;101051.85;;;15.19;96.40
41467;BME280;27205;53.690;19.948;2022-10-17T07:59:50;101056.09;;;15.46;96.09
41467;BME280;27205;53.690;19.948;2022-10-17T08:04:53;101057.74;;;15.70;96.00
41467;BME280;27205;53.690;19.948;2022-10-17T08:09:55;101072.84;;;15.91;95.64
41467;BME280;27205;53.690;19.948;2022-10-17T08:14:58;101070.34;;;15.99;95.19
41467;BME280;27205;53.690;19.948;2022-10-17T08:20:00;101072.04;;;16.10;95.09
41467;BME280;27205;53.690;19.948;2022-10-17T08:25:02;101065.75;;;16.36;95.44
41467;BME280;27205;53.690;19.948;2022-10-17T08:30:04;101059.71;;;16.79;96.00
41467;BME280;27205;53.690;19.948;2022-10-17T08:35:06;101057.11;;;17.24;95.95
41467;BME280;27205;53.690;19.948;2022-10-17T08:40:18;101061.33;;;17.45;95.09
41467;BME280;27205;53.690;19.948;2022-10-17T08:45:50;101074.73;;;17.58;94.77
41467;BME280;27205;53.690;19.948;2022-10-17T08:50:53;101077.73;;;17.45;93.72
41467;BME280;27205;53.690;19.948;2022-10-17T08:56:02;101066.47;;;17.27;93.83
41467;BME280;27205;53.690;19.948;2022-10-17T09:01:34;101061.27;;;17.29;94.17
41467;BME280;27205;53.690;19.948;2022-10-17T09:06:51;101062.84;;;17.40;94.12
41467;BME280;27205;53.690;19.948;2022-10-17T09:23:04;101058.04;;;17.65;93.88
41467;BME280;27205;53.690;19.948;2022-10-17T09:28:28;101051.20;;;17.75;94.07
41467;BME280;27205;53.690;19.948;2022-10-17T09:33:42;101047.06;;;17.97;94.06
41467;BME280;27205;53.690;19.948;2022-10-17T09:39:09;101046.76;;;18.22;93.97
41467;BME280;27205;53.690;19.948;2022-10-17T09:49:34;101052.81;;;18.68;93.75
41467;BME280;27205;53.690;19.948;2022-10-17T09:54:51;101051.05;;;18.88;93.34
41467;BME280;27205;53.690;19.948;2022-10-17T10:00:00;101058.69;;;19.10;92.88
41467;BME280;27205;53.690;19.948;2022-10-17T10:05:18;101058.41;;;19.31;92.30
41467;BME280;27205;53.690;19.948;2022-10-17T10:10:25;101053.45;;;19.52;91.59
41467;BME280;27205;53.690;19.948;2022-10-17T10:15:36;101041.13;;;19.68;91.14
41467;BME280;27205;53.690;19.948;2022-10-17T10:20:38;101033.95;;;19.85;90.65
41467;BME280;27205;53.690;19.948;2022-10-17T10:25:54;101028.64;;;20.03;90.05
41467;BME280;27205;53.690;19.948;2022-10-17T10:30:59;101019.64;;;20.10;89.68
41467;BME280;27205;53.690;19.948;2022-10-17T10:36:04;101022.11;;;20.28;89.34
41467;BME280;27205;53.690;19.948;2022-10-17T10:41:09;101021.79;;;20.45;88.75
41467;BME280;27205;53.690;19.948;2022-10-17T10:46:30;101025.58;;;20.54;88.23
41467;BME280;27205;53.690;19.948;2022-10-17T10:51:50;101019.23;;;20.65;87.88
41467;BME280;27205;53.690;19.948;2022-10-17T10:56:55;101021.41;;;20.80;87.69
41467;BME280;27205;53.690;19.948;2022-10-17T11:12:24;101022.09;;;21.34;86.08
41467;BME280;27205;53.690;19.948;2022-10-17T11:17:44;101019.23;;;21.42;85.56
41467;BME280;27205;53.690;19.948;2022-10-17T11:22:54;101017.20;;;21.49;84.93
41467;BME280;27205;53.690;19.948;2022-10-17T11:27:58;101017.36;;;21.62;84.93
41467;BME280;27205;53.690;19.948;2022-10-17T11:33:08;101012.20;;;21.71;83.90
41467;BME280;27205;53.690;19.948;2022-10-17T11:38:17;101010.86;;;21.86;84.28
41467;BME280;27205;53.690;19.948;2022-10-17T11:43:29;101000.52;;;21.95;83.61
41467;BME280;27205;53.690;19.948;2022-10-17T11:48:43;100991.06;;;21.98;83.15
41467;BME280;27205;53.690;19.948;2022-10-17T12:14:46;100973.61;;;22.53;81.64
41467;BME280;27205;53.690;19.948;2022-10-17T12:19:49;100968.69;;;22.63;81.15
41467;BME280;27205;53.690;19.948;2022-10-17T12:24:56;100965.77;;;22.92;80.97
41467;BME280;27205;53.690;19.948;2022-10-17T12:30:23;100959.88;;;23.35;80.10
41467;BME280;27205;53.690;19.948;2022-10-17T12:35:26;100957.69;;;23.78;79.84
41467;BME280;27205;53.690;19.948;2022-10-17T12:51:10;100952.42;;;24.35;77.65
41467;BME280;27205;53.690;19.948;2022-10-17T12:56:43;100948.89;;;24.18;76.88
41467;BME280;27205;53.690;19.948;2022-10-17T13:01:50;100948.92;;;24.14;76.65
41467;BME280;27205;53.690;19.948;2022-10-17T13:06:56;100952.89;;;24.38;76.11
41467;BME280;27205;53.690;19.948;2022-10-17T13:12:02;100950.83;;;24.47;76.07
41467;BME280;27205;53.690;19.948;2022-10-17T13:22:27;100948.94;;;24.38;75.29
41467;BME280;27205;53.690;19.948;2022-10-17T13:27:32;100947.59;;;24.41;75.04
41467;BME280;27205;53.690;19.948;2022-10-17T13:32:37;100943.92;;;24.22;74.76
41467;BME280;27205;53.690;19.948;2022-10-17T13:37:41;100942.55;;;23.93;74.32
41467;BME280;27205;53.690;19.948;2022-10-17T13:42:45;100934.69;;;23.77;74.42
41467;BME280;27205;53.690;19.948;2022-10-17T13:47:47;100914.52;;;23.73;74.11
41467;BME280;27205;53.690;19.948;2022-10-17T13:53:08;100897.70;;;23.70;74.03
41467;BME280;27205;53.690;19.948;2022-10-17T13:58:17;100884.73;;;23.67;73.95
41467;BME280;27205;53.690;19.948;2022-10-17T14:03:21;100887.92;;;23.68;73.71
41467;BME280;27205;53.690;19.948;2022-10-17T14:48:20;100876.80;;;24.13;67.35
41467;BME280;27205;53.690;19.948;2022-10-17T14:53:27;100879.15;;;24.23;67.57
41467;BME280;27205;53.690;19.948;2022-10-17T14:58:32;100877.30;;;24.26;67.61
41467;BME280;27205;53.690;19.948;2022-10-17T15:03:35;100868.82;;;24.02;67.58
41467;BME280;27205;53.690;19.948;2022-10-17T15:08:39;100856.13;;;23.58;67.91
41467;BME280;27205;53.690;19.948;2022-10-17T15:13:42;100867.64;;;23.08;67.85
41467;BME280;27205;53.690;19.948;2022-10-17T15:18:48;100860.88;;;22.58;68.20
41467;BME280;27205;53.690;19.948;2022-10-17T15:23:51;100855.86;;;22.07;68.44
41467;BME280;27205;53.690;19.948;2022-10-17T15:28:54;100847.41;;;21.58;68.89
41467;BME280;27205;53.690;19.948;2022-10-17T15:33:58;100848.69;;;21.08;69.19
41467;BME280;27205;53.690;19.948;2022-10-17T15:39:02;100851.84;;;20.59;69.47
41467;BME280;27205;53.690;19.948;2022-10-17T15:44:05;100852.61;;;20.20;69.84
41467;BME280;27205;53.690;19.948;2022-10-17T15:49:11;100852.93;;;19.86;70.10
41467;BME280;27205;53.690;19.948;2022-10-17T15:54:15;100851.15;;;19.54;70.27
41467;BME280;27205;53.690;19.948;2022-10-17T15:59:21;100846.23;;;19.26;70.47
41467;BME280;27205;53.690;19.948;2022-10-17T16:04:26;100842.27;;;18.99;70.87
41467;BME280;27205;53.690;19.948;2022-10-17T16:09:31;100839.80;;;18.77;71.13
41467;BME280;27205;53.690;19.948;2022-10-17T16:14:35;100837.01;;;18.58;71.43
41467;BME280;27205;53.690;19.948;2022-10-17T16:19:38;100835.08;;;18.41;71.55
41467;BME280;27205;53.690;19.948;2022-10-17T16:24:41;100833.99;;;18.25;71.81
41467;BME280;27205;53.690;19.948;2022-10-17T16:29:44;100835.08;;;18.12;72.24
41467;BME280;27205;53.690;19.948;2022-10-17T16:34:47;100829.86;;;18.01;72.34
41467;BME280;27205;53.690;19.948;2022-10-17T16:39:51;100823.47;;;17.92;72.70
41467;BME280;27205;53.690;19.948;2022-10-17T16:44:55;100817.29;;;17.83;72.98
41467;BME280;27205;53.690;19.948;2022-10-17T16:49:58;100815.83;;;17.75;73.23
41467;BME280;27205;53.690;19.948;2022-10-17T16:55:02;100809.81;;;17.70;73.38
41467;BME280;27205;53.690;19.948;2022-10-17T17:00:06;100803.73;;;17.67;73.74
41467;BME280;27205;53.690;19.948;2022-10-17T17:05:10;100796.02;;;17.65;73.89
41467;BME280;27205;53.690;19.948;2022-10-17T17:10:13;100793.04;;;17.66;74.20
41467;BME280;27205;53.690;19.948;2022-10-17T17:15:16;100793.34;;;17.67;74.50
41467;BME280;27205;53.690;19.948;2022-10-17T17:20:20;100786.61;;;17.70;74.69
41467;BME280;27205;53.690;19.948;2022-10-17T17:25:23;100776.30;;;17.72;74.83
41467;BME280;27205;53.690;19.948;2022-10-17T17:30:26;100774.79;;;17.74;75.18
41467;BME280;27205;53.690;19.948;2022-10-17T17:35:31;100773.14;;;17.81;75.66
41467;BME280;27205;53.690;19.948;2022-10-17T17:40:34;100773.04;;;17.90;75.95
41467;BME280;27205;53.690;19.948;2022-10-17T17:45:38;100766.64;;;17.97;76.43
41467;BME280;27205;53.690;19.948;2022-10-17T17:50:42;100764.60;;;18.07;77.07
41467;BME280;27205;53.690;19.948;2022-10-17T17:55:46;100763.82;;;18.12;77.39
41467;BME280;27205;53.690;19.948;2022-10-17T18:00:49;100765.03;;;18.16;77.75
41467;BME280;27205;53.690;19.948;2022-10-17T18:05:52;100761.89;;;18.16;77.82
41467;BME280;27205;53.690;19.948;2022-10-17T18:10:56;100752.16;;;18.16;78.08
41467;BME280;27205;53.690;19.948;2022-10-17T18:16:01;100742.13;;;18.18;78.32
41467;BME280;27205;53.690;19.948;2022-10-17T18:21:04;100747.05;;;18.19;78.44
41467;BME280;27205;53.690;19.948;2022-10-17T18:26:08;100748.83;;;18.19;78.59
41467;BME280;27205;53.690;19.948;2022-10-17T18:31:15;100747.75;;;18.17;78.69
41467;BME280;27205;53.690;19.948;2022-10-17T18:36:21;100744.75;;;18.15;78.70
41467;BME280;27205;53.690;19.948;2022-10-17T18:41:25;100742.38;;;18.13;79.01
41467;BME280;27205;53.690;19.948;2022-10-17T18:46:33;100741.65;;;18.11;79.14
41467;BME280;27205;53.690;19.948;2022-10-17T18:51:38;100739.25;;;18.05;79.11
41467;BME280;27205;53.690;19.948;2022-10-17T18:56:42;100736.89;;;17.98;79.21
41467;BME280;27205;53.690;19.948;2022-10-17T19:01:46;100735.05;;;17.92;79.32
41467;BME280;27205;53.690;19.948;2022-10-17T19:06:50;100732.29;;;17.87;79.44
41467;BME280;27205;53.690;19.948;2022-10-17T19:11:53;100717.47;;;17.81;79.46
41467;BME280;27205;53.690;19.948;2022-10-17T19:16:57;100715.93;;;17.76;79.69
41467;BME280;27205;53.690;19.948;2022-10-17T19:22:01;100707.50;;;17.72;79.69
41467;BME280;27205;53.690;19.948;2022-10-17T19:27:05;100699.44;;;17.69;79.84
41467;BME280;27205;53.690;19.948;2022-10-17T19:32:09;100694.71;;;17.67;79.97
41467;BME280;27205;53.690;19.948;2022-10-17T19:37:19;100692.80;;;17.66;80.17
41467;BME280;27205;53.690;19.948;2022-10-17T19:42:23;100697.75;;;17.64;80.30
41467;BME280;27205;53.690;19.948;2022-10-17T19:47:26;100700.38;;;17.64;80.54
41467;BME280;27205;53.690;19.948;2022-10-17T19:52:29;100702.55;;;17.64;80.58
41467;BME280;27205;53.690;19.948;2022-10-17T19:57:33;100695.10;;;17.63;80.83
41467;BME280;27205;53.690;19.948;2022-10-17T20:02:38;100690.05;;;17.65;81.16
41467;BME280;27205;53.690;19.948;2022-10-17T20:07:41;100686.86;;;17.65;81.31
41467;BME280;27205;53.690;19.948;2022-10-17T20:12:44;100681.09;;;17.66;81.36
41467;BME280;27205;53.690;19.948;2022-10-17T21:03:16;100665.01;;;17.90;80.93
41467;BME280;27205;53.690;19.948;2022-10-17T21:08:18;100667.65;;;17.74;80.75
41467;BME280;27205;53.690;19.948;2022-10-17T21:13:20;100673.02;;;17.62;80.79
41467;BME280;27205;53.690;19.948;2022-10-17T21:18:22;100662.52;;;17.48;80.81
41467;BME280;27205;53.690;19.948;2022-10-17T21:23:24;100663.61;;;17.34;80.94
41467;BME280;27205;53.690;19.948;2022-10-17T21:28:26;100672.23;;;17.21;80.99
41467;BME280;27205;53.690;19.948;2022-10-17T21:33:28;100670.54;;;17.08;80.93
41467;BME280;27205;53.690;19.948;2022-10-17T21:38:30;100670.89;;;17.00;80.87
41467;BME280;27205;53.690;19.948;2022-10-17T21:43:32;100665.44;;;16.90;80.93
41467;BME280;27205;53.690;19.948;2022-10-17T21:48:35;100663.77;;;16.82;81.16
41467;BME280;27205;53.690;19.948;2022-10-17T21:53:37;100664.84;;;16.76;81.25
41467;BME280;27205;53.690;19.948;2022-10-17T21:58:39;100662.65;;;16.72;81.55
41467;BME280;27205;53.690;19.948;2022-10-17T22:03:44;100655.84;;;16.70;81.57
41467;BME280;27205;53.690;19.948;2022-10-17T22:08:48;100648.79;;;16.66;82.09
41467;BME280;27205;53.690;19.948;2022-10-17T22:13:59;100654.84;;;16.65;81.93
41467;BME280;27205;53.690;19.948;2022-10-17T22:19:04;100656.92;;;16.60;82.27
41467;BME280;27205;53.690;19.948;2022-10-17T22:24:11;100650.63;;;16.55;82.24
41467;BME280;27205;53.690;19.948;2022-10-17T22:29:14;100647.44;;;16.50;82.35
41467;BME280;27205;53.690;19.948;2022-10-17T22:34:17;100649.12;;;16.45;82.27
41467;BME280;27205;53.690;19.948;2022-10-17T22:39:19;100648.50;;;16.37;82.36
41467;BME280;27205;53.690;19.948;2022-10-17T22:44:21;100641.53;;;16.30;82.35
41467;BME280;27205;53.690;19.948;2022-10-17T22:49:22;100643.64;;;16.23;82.39
41467;BME280;27205;53.690;19.948;2022-10-17T22:54:24;100641.73;;;16.16;82.53
41467;BME280;27205;53.690;19.948;2022-10-17T22:59:26;100640.50;;;16.07;82.80
41467;BME280;27205;53.690;19.948;2022-10-17T23:04:28;100642.47;;;16.03;82.66
41467;BME280;27205;53.690;19.948;2022-10-17T23:09:30;100641.49;;;15.97;82.88
41467;BME280;27205;53.690;19.948;2022-10-17T23:14:32;100638.42;;;15.92;83.00
41467;BME280;27205;53.690;19.948;2022-10-17T23:19:38;100639.59;;;15.88;83.20
41467;BME280;27205;53.690;19.948;2022-10-17T23:24:40;100635.43;;;15.82;83.26
41467;BME280;27205;53.690;19.948;2022-10-17T23:29:42;100637.33;;;15.80;83.37
41467;BME280;27205;53.690;19.948;2022-10-17T23:34:44;100633.30;;;15.76;83.59
41467;BME280;27205;53.690;19.948;2022-10-17T23:39:46;100633.14;;;15.71;83.90
41467;BME280;27205;53.690;19.948;2022-10-17T23:44:48;100628.37;;;15.69;84.06
41467;BME280;27205;53.690;19.948;2022-10-17T23:49:50;100620.15;;;15.66;84.18
41467;BME280;27205;53.690;19.948;2022-10-17T23:54:52;100620.73;;;15.64;84.24
41467;BME280;27205;53.690;19.948;2022-10-17T23:59:54;100625.30;;;15.61;84.33
